Time;durP1;ratioP1;P1;durP2;ratioP2;P2;SDS_P1;SDS_P2;PMS_P1;PMS_P2;Temp;Humidity;BMP_temperature;BMP_pressure;BME280_temperature;BME280_humidity;BME280_pressure;Samples;Min_cycle;Max_cycle;Signal;HPM_P1;HPM_P2
2023/03/03 00:02:04;;;;;;;22.92;14.02;;;;;;;3.52;86.26;96642.16;6158041;23;20025;-61
2023/03/03 00:04:31;;;;;;;23.02;14.23;;;;;;;3.56;86.30;96643.88;6157775;23;20021;-63
2023/03/03 00:07:01;;;;;;;29.30;16.13;;;;;;;3.59;85.79;96636.09;6157049;23;20053;-62
2023/03/03 00:09:28;;;;;;;;;;;;;;;3.60;85.96;96635.22;6158020;23;20025;-63
2023/03/03 00:12:01;;;;;;;21.88;14.05;;;;;;;3.61;86.41;96628.31;6156873;23;19924;-62
2023/03/03 00:14:31;;;;;;;23.77;14.23;;;;;;;3.60;86.41;96621.41;6156619;23;20026;-64
2023/03/03 00:17:01;;;;;;;24.98;14.30;;;;;;;3.56;86.04;96614.56;6155843;23;20025;-62
2023/03/03 00:19:38;;;;;;;23.73;14.20;;;;;;;3.57;85.63;96608.50;6155846;23;20080;-62
2023/03/03 00:22:20;;;;;;;23.92;14.52;;;;;;;3.59;85.53;96610.22;6155968;23;20155;-63
2023/03/03 00:24:50;;;;;;;21.80;14.23;;;;;;;3.60;85.58;96604.16;6156151;23;20021;-63
2023/03/03 00:27:29;;;;;;;21.05;13.35;;;;;;;3.61;85.64;96598.13;6156310;23;20018;-62
2023/03/03 00:29:57;;;;;;;21.48;13.73;;;;;;;3.61;85.23;96598.13;6156620;23;20028;-63
2023/03/03 00:32:27;;;;;;;19.17;12.90;;;;;;;3.63;85.38;96592.91;6156503;23;20057;-63
2023/03/03 00:34:56;;;;;;;18.67;12.93;;;;;;;3.70;85.70;96591.16;6155888;23;20467;-62
2023/03/03 00:37:30;;;;;;;20.77;13.65;;;;;;;3.73;85.39;96586.78;6156023;23;20025;-62
2023/03/03 00:40:22;;;;;;;20.98;12.82;;;;;;;3.74;85.30;96582.47;6156199;23;20384;-63
2023/03/03 00:42:54;;;;;;;21.38;14.13;;;;;;;3.74;85.21;96575.59;6149210;23;20017;-62
2023/03/03 00:45:31;;;;;;;32.05;17.83;;;;;;;3.74;85.51;96575.59;6156173;23;20093;-62
2023/03/03 00:47:59;;;;;;;26.25;15.82;;;;;;;3.74;84.69;96577.31;6156809;23;20045;-62
2023/03/03 00:50:29;;;;;;;21.98;14.68;;;;;;;3.74;85.18;96572.13;6157659;23;20026;-64
2023/03/03 00:53:03;;;;;;;27.38;15.05;;;;;;;3.79;85.63;96560.84;6157704;23;20025;-62
2023/03/03 00:55:32;;;;;;;32.58;16.73;;;;;;;3.81;85.84;96557.38;6158125;23;20322;-62
2023/03/03 00:58:01;;;;;;;27.50;14.75;;;;;;;3.80;85.57;96556.53;6157809;23;20027;-63
2023/03/03 01:00:29;;;;;;;19.38;13.63;;;;;;;3.81;85.16;96555.66;6157999;23;20021;-63
2023/03/03 01:02:56;;;;;;;21.20;13.20;;;;;;;3.78;84.07;96556.56;6157694;23;20024;-63
2023/03/03 01:05:24;;;;;;;25.90;14.05;;;;;;;3.77;83.50;96554.81;6157992;23;20406;-64
2023/03/03 01:07:51;;;;;;;20.98;14.02;;;;;;;3.74;83.76;96548.84;6157944;23;20078;-62
2023/03/03 01:10:19;;;;;;;23.63;13.70;;;;;;;3.77;83.60;96548.81;6157797;23;20028;-63
2023/03/03 01:12:46;;;;;;;22.25;14.45;;;;;;;3.78;83.83;96546.22;6157125;23;20025;-63
2023/03/03 01:15:16;;;;;;;24.40;15.43;;;;;;;3.75;84.49;96541.06;6157488;23;20104;-62
2023/03/03 01:17:43;;;;;;;31.58;14.23;;;;;;;3.75;85.26;96542.78;6157317;23;20471;-63
2023/03/03 01:20:13;;;;;;;24.50;14.43;;;;;;;3.80;85.47;96546.19;6157725;23;20017;-63
2023/03/03 01:22:41;;;;;;;23.95;14.85;;;;;;;3.82;85.65;96534.06;6157652;23;20096;-62
2023/03/03 01:25:10;;;;;;;24.52;13.98;;;;;;;3.84;85.82;96547.00;6157365;23;20017;-64
2023/03/03 01:27:37;;;;;;;23.55;14.20;;;;;;;3.85;85.69;96539.22;6157595;23;20080;-63
2023/03/03 01:30:06;;;;;;;27.00;14.10;;;;;;;3.86;85.63;96535.78;6157263;23;20080;-63
2023/03/03 01:32:35;;;;;;;24.45;14.88;;;;;;;3.91;85.61;96541.75;6157678;23;20017;-64
2023/03/03 01:35:05;;;;;;;21.27;13.90;;;;;;;3.93;85.48;96541.72;6157296;23;20021;-64
2023/03/03 01:37:34;;;;;;;27.30;14.77;;;;;;;3.91;85.55;96533.09;6157373;23;20024;-62
2023/03/03 01:40:01;;;;;;;24.67;16.00;;;;;;;3.84;85.54;96529.75;6157107;23;20096;-63
2023/03/03 01:42:29;;;;;;;24.70;15.90;;;;;;;3.84;85.81;96534.06;6157210;23;20021;-63
2023/03/03 01:45:24;;;;;;;25.90;15.63;;;;;;;3.82;85.78;96535.81;6157253;23;20396;-62
2023/03/03 01:48:04;;;;;;;22.38;14.00;;;;;;;3.81;85.44;96527.19;6089839;23;20028;-63
2023/03/03 01:50:38;;;;;;;20.40;14.10;;;;;;;3.82;85.94;96528.91;6157093;23;20018;-62
2023/03/03 01:53:12;;;;;;;27.88;15.77;;;;;;;3.84;85.95;96537.50;6157132;23;20072;-64
2023/03/03 01:55:42;;;;;;;22.67;13.63;;;;;;;3.82;86.13;96528.91;6157374;23;20049;-64
2023/03/03 01:58:14;;;;;;;28.35;15.75;;;;;;;3.85;86.33;96541.81;6156670;23;20452;-63
2023/03/03 02:00:46;;;;;;;19.77;14.15;;;;;;;3.86;86.22;96538.38;6157082;23;20025;-63
2023/03/03 02:03:15;;;;;;;30.27;16.30;;;;;;;3.87;86.53;96541.78;6157046;23;20022;-63
2023/03/03 02:05:44;;;;;;;27.35;18.20;;;;;;;3.86;86.67;96543.53;6157062;23;20021;-62
2023/03/03 02:08:16;;;;;;;22.63;15.30;;;;;;;3.86;87.35;96545.25;6157032;23;20021;-64
2023/03/03 02:10:45;;;;;;;24.80;15.38;;;;;;;3.86;87.11;96547.84;6157364;23;20084;-63
2023/03/03 02:13:12;;;;;;;30.10;16.95;;;;;;;3.87;87.37;96542.66;6156846;23;20452;-64
2023/03/03 02:15:40;;;;;;;28.60;15.88;;;;;;;3.89;87.08;96545.22;6156864;23;20018;-63
2023/03/03 02:18:11;;;;;;;24.00;14.85;;;;;;;3.91;87.41;96546.03;6156545;23;20026;-64
2023/03/03 02:20:54;;;;;;;24.05;13.48;;;;;;;3.90;86.83;96542.63;6157227;23;20022;-63
2023/03/03 02:23:27;;;;;;;25.75;14.68;;;;;;;3.90;86.55;96544.34;6157092;23;20096;-63
2023/03/03 02:26:09;;;;;;;21.55;13.05;;;;;;;3.89;86.60;96546.06;6157271;23;20018;-63
2023/03/03 02:28:38;;;;;;;26.02;14.18;;;;;;;3.88;86.58;96546.94;6157271;23;20340;-62
2023/03/03 02:31:11;;;;;;;24.95;14.73;;;;;;;3.90;86.63;96545.22;6157168;23;20025;-62
2023/03/03 02:33:38;;;;;;;20.58;13.93;;;;;;;3.92;86.61;96547.78;6156567;23;20021;-63
2023/03/03 02:36:06;;;;;;;25.35;14.57;;;;;;;3.95;86.67;96541.72;6156675;23;20456;-64
2023/03/03 02:38:41;;;;;;;20.38;13.85;;;;;;;3.96;86.62;96543.41;6156688;23;20082;-64
2023/03/03 02:41:16;;;;;;;21.80;13.80;;;;;;;3.97;86.62;96540.81;6157138;23;20029;-64
2023/03/03 02:43:55;;;;;;;26.80;15.52;;;;;;;3.94;86.34;96550.34;6156670;23;20486;-64
2023/03/03 02:46:23;;;;;;;21.23;13.57;;;;;;;3.90;86.71;96549.53;6156690;23;20025;-64
2023/03/03 02:48:50;;;;;;;21.67;15.35;;;;;;;3.87;87.20;96545.25;6156495;23;20030;-63
2023/03/03 02:51:18;;;;;;;31.70;16.38;;;;;;;3.88;87.15;96543.50;6156997;23;20022;-63
2023/03/03 02:53:45;;;;;;;30.70;15.90;;;;;;;3.84;87.08;96549.59;6156680;23;20022;-62
2023/03/03 02:56:14;;;;;;;24.98;15.65;;;;;;;3.83;87.01;96548.75;6156375;23;20414;-64
2023/03/03 02:58:42;;;;;;;25.45;14.60;;;;;;;3.83;86.84;96551.34;6156060;23;20105;-61
2023/03/03 03:01:10;;;;;;;25.10;15.60;;;;;;;3.83;86.80;96548.75;6156473;23;20022;-64
2023/03/03 03:03:38;;;;;;;30.90;15.55;;;;;;;3.84;86.89;96540.09;6156856;23;20045;-62
2023/03/03 03:06:06;;;;;;;26.52;15.32;;;;;;;3.82;87.26;96546.16;6156470;23;20028;-64
2023/03/03 03:08:33;;;;;;;21.75;15.10;;;;;;;3.78;86.93;96547.91;6156349;23;20032;-63
2023/03/03 03:11:04;;;;;;;27.45;15.65;;;;;;;3.79;87.10;96542.72;6155959;23;20068;-64
2023/03/03 03:13:33;;;;;;;32.97;14.90;;;;;;;3.78;86.74;96545.34;6156452;23;20021;-63
2023/03/03 03:16:01;;;;;;;28.95;15.80;;;;;;;3.74;85.35;96547.13;6156828;23;20022;-62
2023/03/03 03:18:29;;;;;;;26.10;15.18;;;;;;;3.72;84.98;96541.09;6155965;23;20514;-63
2023/03/03 03:20:56;;;;;;;24.30;15.75;;;;;;;3.74;85.35;96543.66;6156212;23;20026;-63
2023/03/03 03:23:26;;;;;;;29.73;15.38;;;;;;;3.76;85.60;96544.47;6156231;23;20539;-62
2023/03/03 03:25:54;;;;;;;26.83;14.32;;;;;;;3.79;85.76;96539.28;6156298;23;20053;-63
2023/03/03 03:28:23;;;;;;;23.60;14.13;;;;;;;3.81;85.97;96536.69;6156297;23;20096;-62
2023/03/03 03:30:52;;;;;;;23.60;14.20;;;;;;;3.83;85.93;96540.97;6156075;23;20096;-62
2023/03/03 03:33:19;;;;;;;19.75;14.07;;;;;;;3.83;85.87;96540.97;6156685;23;20317;-64
2023/03/03 03:35:47;;;;;;;24.48;15.45;;;;;;;3.83;86.27;96538.41;6156204;23;20084;-62
2023/03/03 03:38:15;;;;;;;23.85;14.98;;;;;;;3.86;86.38;96542.66;6156080;23;20025;-63
2023/03/03 03:40:43;;;;;;;21.58;14.48;;;;;;;3.88;86.48;96540.91;6155870;23;20076;-62
2023/03/03 03:43:10;;;;;;;22.38;14.50;;;;;;;3.90;85.61;96534.84;6156149;23;20025;-63
2023/03/03 03:45:37;;;;;;;27.70;15.82;;;;;;;3.89;85.77;96538.31;6156120;23;20059;-63
2023/03/03 03:48:06;;;;;;;28.63;14.93;;;;;;;3.84;85.15;96534.06;6156029;23;20486;-64
2023/03/03 03:50:34;;;;;;;23.20;15.63;;;;;;;3.78;84.74;96537.56;6156161;23;20511;-62
2023/03/03 03:53:01;;;;;;;25.50;14.82;;;;;;;3.78;85.04;96535.84;6156122;23;20020;-64
2023/03/03 03:55:29;;;;;;;25.35;14.63;;;;;;;3.76;85.53;96528.97;6156158;23;20017;-63
2023/03/03 03:57:56;;;;;;;22.10;14.13;;;;;;;3.64;84.86;96523.06;6156473;23;20388;-64
2023/03/03 04:00:24;;;;;;;25.42;15.30;;;;;;;3.60;84.99;96523.97;6155889;23;20022;-63
2023/03/03 04:02:52;;;;;;;23.33;15.23;;;;;;;3.58;84.81;96530.88;6156116;23;20032;-63
2023/03/03 04:05:21;;;;;;;24.38;15.05;;;;;;;3.56;84.62;96530.06;6156502;23;20021;-63
2023/03/03 04:07:49;;;;;;;24.42;15.50;;;;;;;3.54;84.54;96522.31;6156328;23;20056;-62
2023/03/03 04:10:17;;;;;;;24.55;14.98;;;;;;;3.57;84.68;96521.41;6156434;23;20024;-63
2023/03/03 04:12:45;;;;;;;25.05;15.15;;;;;;;3.54;84.91;96518.84;6155966;23;20053;-63
2023/03/03 04:15:14;;;;;;;22.70;15.02;;;;;;;3.48;85.15;96521.50;6156239;23;20088;-63
2023/03/03 04:17:42;;;;;;;22.20;14.77;;;;;;;3.50;85.41;96524.94;6155613;23;20461;-64
2023/03/03 04:20:13;;;;;;;21.48;14.35;;;;;;;3.57;85.24;96525.72;6156194;23;20025;-63
2023/03/03 04:22:42;;;;;;;22.23;14.80;;;;;;;3.57;84.69;96528.31;6157534;23;20028;-63
2023/03/03 04:25:12;;;;;;;23.15;14.23;;;;;;;3.61;85.38;96520.50;6158230;23;20022;-63
2023/03/03 04:27:39;;;;;;;24.55;14.18;;;;;;;3.57;86.00;96526.59;6158336;23;20069;-64
2023/03/03 04:30:08;;;;;;;24.95;14.77;;;;;;;3.59;86.00;96521.41;6158336;23;20025;-62
2023/03/03 04:32:36;;;;;;;25.17;14.98;;;;;;;3.65;86.42;96526.50;6157862;23;20017;-64
2023/03/03 04:35:03;;;;;;;22.15;16.02;;;;;;;3.64;86.08;96525.63;6158366;23;20082;-63
2023/03/03 04:37:31;;;;;;;25.75;15.90;;;;;;;3.67;85.42;96532.50;6158029;23;20084;-63
2023/03/03 04:40:00;;;;;;;23.67;15.73;;;;;;;3.65;85.42;96529.09;6157780;23;20026;-63
2023/03/03 04:42:28;;;;;;;27.67;15.90;;;;;;;3.56;84.86;96524.88;6157760;23;20068;-62
2023/03/03 04:44:58;;;;;;;28.55;15.82;;;;;;;3.47;84.62;96525.81;6158092;23;20040;-63
2023/03/03 04:47:26;;;;;;;29.45;14.48;;;;;;;3.46;84.56;96524.09;6157785;23;20053;-63
2023/03/03 04:49:54;;;;;;;24.13;15.60;;;;;;;3.46;84.30;96523.25;6157646;23;20072;-63
2023/03/03 04:52:21;;;;;;;21.25;15.75;;;;;;;3.47;84.24;96522.38;6157571;23;20018;-64
2023/03/03 04:54:48;;;;;;;27.77;16.60;;;;;;;3.40;84.20;96525.03;6157597;23;20029;-61
2023/03/03 04:57:17;;;;;;;31.48;17.38;;;;;;;3.40;84.56;96532.78;6157579;23;20029;-63
2023/03/03 04:59:45;;;;;;;29.90;15.55;;;;;;;3.50;85.05;96530.09;6157444;23;20776;-62
2023/03/03 05:02:13;;;;;;;23.33;15.77;;;;;;;3.54;85.08;96527.47;6157474;23;20021;-62
2023/03/03 05:04:40;;;;;;;28.27;15.65;;;;;;;3.61;85.10;96524.84;6157406;23;20018;-62
2023/03/03 05:07:08;;;;;;;25.30;15.77;;;;;;;3.61;84.88;96528.25;6157791;23;20029;-62
2023/03/03 05:09:36;;;;;;;24.27;14.48;;;;;;;3.65;85.43;96529.09;6157556;23;20022;-62
2023/03/03 05:12:04;;;;;;;26.15;15.88;;;;;;;3.65;85.64;96527.34;6157593;23;20057;-63
2023/03/03 05:14:32;;;;;;;33.10;16.52;;;;;;;3.68;86.03;96529.06;6157592;23;20018;-63
2023/03/03 05:17:00;;;;;;;26.33;15.50;;;;;;;3.66;85.92;96529.09;6157500;23;20021;-63
2023/03/03 05:19:27;;;;;;;29.02;16.33;;;;;;;3.67;85.71;96530.78;6157681;23;20029;-64
2023/03/03 05:21:56;;;;;;;29.05;15.68;;;;;;;3.58;85.53;96533.47;6157534;23;20543;-63
2023/03/03 05:24:27;;;;;;;25.60;16.38;;;;;;;3.58;86.10;96535.22;6157913;23;20097;-64
2023/03/03 05:26:58;;;;;;;27.60;15.52;;;;;;;3.60;85.93;96533.44;6157522;23;20468;-63
2023/03/03 05:29:30;;;;;;;28.95;15.57;;;;;;;3.51;85.64;96530.09;6157153;23;20025;-62
2023/03/03 05:31:59;;;;;;;26.35;15.88;;;;;;;3.50;85.19;96528.38;6157386;23;20077;-61
2023/03/03 05:34:29;;;;;;;28.08;16.23;;;;;;;3.52;85.37;96525.75;6156838;23;20017;-63
2023/03/03 05:37:05;;;;;;;28.88;16.23;;;;;;;3.54;85.66;96519.72;6157204;23;20021;-63
2023/03/03 05:39:33;;;;;;;28.45;16.92;;;;;;;3.50;85.99;96517.19;6157086;23;20024;-63
2023/03/03 05:42:05;;;;;;;28.55;17.55;;;;;;;3.52;86.20;96512.81;6157648;23;20049;-63
2023/03/03 05:44:33;;;;;;;25.48;16.00;;;;;;;3.51;86.51;96521.47;6157190;23;20017;-63
2023/03/03 05:47:03;;;;;;;43.03;22.75;;;;;;;3.53;86.56;96525.75;6157517;23;20021;-64
2023/03/03 05:49:39;;;;;;;35.95;18.23;;;;;;;3.57;86.64;96523.13;6157579;23;20535;-62
2023/03/03 05:52:11;;;;;;;29.55;17.13;;;;;;;3.58;86.68;96522.28;6157005;23;20021;-63
2023/03/03 05:54:38;;;;;;;28.08;16.67;;;;;;;3.63;87.14;96523.06;6157055;23;20029;-63
2023/03/03 05:57:05;;;;;;;27.10;16.95;;;;;;;3.60;87.22;96529.13;6157115;23;20045;-63
2023/03/03 05:59:33;;;;;;;24.45;15.20;;;;;;;3.58;86.56;96525.69;6157307;23;20021;-62
2023/03/03 06:02:00;;;;;;;23.85;15.13;;;;;;;3.57;86.37;96526.59;6157439;23;20026;-62
2023/03/03 06:04:29;;;;;;;25.15;15.30;;;;;;;3.59;86.18;96519.66;6157031;23;20057;-63
2023/03/03 06:06:56;;;;;;;27.38;15.23;;;;;;;3.58;86.20;96522.28;6157004;23;20017;-62
2023/03/03 06:09:25;;;;;;;24.85;14.10;;;;;;;3.63;86.24;96529.13;6156834;23;20026;-62
2023/03/03 06:11:52;;;;;;;29.33;14.63;;;;;;;3.69;86.41;96525.59;6156922;23;20053;-63
2023/03/03 06:14:21;;;;;;;21.67;14.90;;;;;;;3.71;85.50;96528.16;6156872;23;20017;-63
2023/03/03 06:16:48;;;;;;;29.33;14.15;;;;;;;3.66;86.10;96525.63;6156897;23;20029;-62
2023/03/03 06:19:19;;;;;;;33.08;15.05;;;;;;;3.63;85.61;96531.69;6156859;23;20053;-63
2023/03/03 06:21:47;;;;;;;29.88;14.13;;;;;;;3.68;85.66;96534.25;6156744;23;20376;-62
2023/03/03 06:24:15;;;;;;;30.45;14.50;;;;;;;3.71;85.70;96535.94;6156804;23;20021;-64
2023/03/03 06:26:42;;;;;;;29.02;14.52;;;;;;;3.69;85.30;96533.34;6157211;23;20093;-64
2023/03/03 06:29:10;;;;;;;28.13;14.88;;;;;;;3.72;85.99;96537.63;6157027;23;20028;-63
2023/03/03 06:31:45;;;;;;;26.38;13.25;;;;;;;3.75;85.24;96533.28;6157044;23;20340;-63
2023/03/03 06:34:13;;;;;;;22.73;13.45;;;;;;;3.76;84.92;96540.19;6156696;23;20528;-64
2023/03/03 06:36:41;;;;;;;21.00;12.80;;;;;;;3.76;85.07;96539.31;6157015;23;20049;-62
2023/03/03 06:39:12;;;;;;;23.33;13.68;;;;;;;3.70;85.28;96532.47;6157862;23;20028;-63
2023/03/03 06:41:40;;;;;;;28.85;13.35;;;;;;;3.71;85.82;96528.16;6158892;23;20459;-60
2023/03/03 06:44:07;;;;;;;26.70;12.73;;;;;;;3.74;85.78;96535.91;6158427;23;20062;-63
2023/03/03 06:46:35;;;;;;;17.15;11.85;;;;;;;3.74;85.80;96546.25;6158033;23;20022;-63
2023/03/03 06:49:03;;;;;;;29.52;14.25;;;;;;;3.77;85.59;96546.22;6158235;23;20029;-62
2023/03/03 06:51:33;;;;;;;21.05;12.60;;;;;;;3.83;85.66;96543.56;6158195;23;20025;-62
2023/03/03 06:54:06;;;;;;;22.13;12.35;;;;;;;3.85;85.57;96541.81;6158968;23;20018;-62
2023/03/03 06:56:37;;;;;;;23.55;13.15;;;;;;;3.89;85.53;96542.63;6159192;23;20025;-63
2023/03/03 06:59:13;;;;;;;18.73;12.18;;;;;;;3.92;85.90;96545.19;6158956;23;20052;-64
2023/03/03 07:01:41;;;;;;;15.60;9.93;;;;;;;3.90;84.81;96545.22;6159575;23;20052;-62
2023/03/03 07:04:16;;;;;;;18.45;10.20;;;;;;;3.83;83.75;96542.69;6158943;23;20073;-63
2023/03/03 07:06:44;;;;;;;18.42;10.60;;;;;;;3.85;84.84;96543.56;6158983;23;20017;-62
2023/03/03 07:09:22;;;;;;;18.25;10.85;;;;;;;3.84;84.45;96547.00;6158227;23;20021;-62
2023/03/03 07:11:52;;;;;;;14.75;10.13;;;;;;;3.88;84.63;96546.09;6158268;23;20032;-63
2023/03/03 07:14:20;;;;;;;16.60;9.45;;;;;;;3.92;84.86;96540.03;6158913;23;20049;-61
2023/03/03 07:16:56;;;;;;;18.17;9.95;;;;;;;3.97;84.47;96540.81;6157970;23;20169;-62
2023/03/03 07:19:31;;;;;;;13.65;8.50;;;;;;;3.94;83.97;96540.00;6158995;23;20068;-62
2023/03/03 07:21:59;;;;;;;14.40;8.80;;;;;;;3.94;83.97;96534.81;6158578;23;20526;-62
2023/03/03 07:24:29;;;;;;;17.05;9.30;;;;;;;3.93;84.28;96536.53;6158413;23;20406;-63
2023/03/03 07:27:07;;;;;;;10.03;7.50;;;;;;;3.97;84.15;96529.63;6159017;23;20017;-63
2023/03/03 07:29:35;;;;;;;13.45;8.85;;;;;;;4.00;84.46;96522.66;6158297;23;20248;-64
2023/03/03 07:32:10;;;;;;;11.80;9.00;;;;;;;4.08;84.68;96524.28;6157829;23;20449;-63
2023/03/03 07:34:49;;;;;;;13.32;8.35;;;;;;;4.13;84.34;96517.34;6158026;23;20401;-62
2023/03/03 07:37:23;;;;;;;18.92;8.32;;;;;;;4.19;84.30;96518.97;6158485;23;20101;-62
2023/03/03 07:39:51;;;;;;;19.20;8.85;;;;;;;4.17;83.45;96512.09;6158124;23;20021;-62
2023/03/03 07:42:26;;;;;;;20.08;9.93;;;;;;;4.23;83.49;96516.34;6159891;23;20026;-64
2023/03/03 07:44:56;;;;;;;14.35;9.98;;;;;;;4.28;83.18;96518.88;6159586;23;20072;-64
2023/03/03 07:47:25;;;;;;;11.13;7.47;;;;;;;4.27;82.59;96519.72;6158850;23;20021;-63
2023/03/03 07:49:55;;;;;;;14.45;9.13;;;;;;;4.23;83.53;96513.75;6159153;23;20076;-62
2023/03/03 07:52:31;;;;;;;15.00;9.40;;;;;;;4.33;84.28;96506.69;6158522;23;20017;-62
2023/03/03 07:55:04;;;;;;;16.30;9.18;;;;;;;4.37;83.26;96504.94;6158688;23;20033;-63
2023/03/03 07:57:38;;;;;;;15.82;8.23;;;;;;;4.41;81.84;96507.47;6154485;23;20028;-64
2023/03/03 08:00:50;;;;;;;17.30;8.52;;;;;;;4.42;80.66;96504.00;6157669;23;20058;-64
2023/03/03 08:03:20;;;;;;;9.73;7.28;;;;;;;4.42;81.11;96504.00;6121607;23;20349;-62
2023/03/03 08:05:52;;;;;;;15.45;8.38;;;;;;;4.51;80.70;96513.34;6158905;23;20049;-62
2023/03/03 08:08:30;;;;;;;11.43;8.52;;;;;;;4.52;82.33;96502.09;6158457;23;20076;-63
2023/03/03 08:10:58;;;;;;;12.27;8.23;;;;;;;4.58;78.86;96508.09;6158182;23;20053;-63
2023/03/03 08:13:30;;;;;;;13.30;8.77;;;;;;;4.65;78.65;96513.16;6159038;23;20100;-63
2023/03/03 08:16:02;;;;;;;14.27;8.82;;;;;;;4.75;79.31;96505.25;6157935;23;20076;-58
2023/03/03 08:18:34;;;;;;;12.60;7.10;;;;;;;4.75;78.58;96506.09;6158188;23;20026;-62
2023/03/03 08:21:08;;;;;;;12.32;8.10;;;;;;;4.76;78.32;96506.97;6158638;23;20021;-63
2023/03/03 08:23:38;;;;;;;13.88;7.82;;;;;;;4.81;78.36;96505.16;6158231;23;20021;-63
2023/03/03 08:26:06;;;;;;;14.95;9.00;;;;;;;4.81;78.42;96502.56;6158376;23;20026;-63
2023/03/03 08:28:37;;;;;;;10.50;7.93;;;;;;;4.77;77.36;96499.16;6158653;23;20089;-63
2023/03/03 08:31:07;;;;;;;18.13;8.70;;;;;;;4.80;78.17;96504.31;6157973;23;20040;-63
2023/03/03 08:33:35;;;;;;;19.73;10.27;;;;;;;4.76;77.69;96507.81;6158392;23;20036;-61
2023/03/03 08:36:03;;;;;;;19.67;10.25;;;;;;;4.87;77.88;96504.19;6158363;23;20388;-62
2023/03/03 08:38:30;;;;;;;15.88;10.05;;;;;;;4.93;78.07;96501.50;6158491;23;20024;-63
2023/03/03 08:40:59;;;;;;;14.25;9.38;;;;;;;4.97;77.18;96503.16;6158233;23;20318;-64
2023/03/03 08:43:27;;;;;;;12.15;8.40;;;;;;;5.00;77.55;96497.09;6158522;23;20048;-62
2023/03/03 08:46:00;;;;;;;19.00;9.38;;;;;;;5.06;76.94;96500.41;6158833;23;20049;-63
2023/03/03 08:48:33;;;;;;;17.35;9.43;;;;;;;5.09;77.40;96499.50;6157797;23;20396;-64
2023/03/03 08:51:01;;;;;;;18.58;9.50;;;;;;;5.06;78.38;96491.81;6157660;23;20018;-62
2023/03/03 08:53:29;;;;;;;14.82;9.63;;;;;;;5.12;78.38;96494.28;6157490;23;20022;-62
2023/03/03 08:56:01;;;;;;;18.02;9.32;;;;;;;5.09;77.46;96489.13;6157856;23;20453;-63
2023/03/03 08:58:28;;;;;;;13.52;8.95;;;;;;;5.14;77.22;96492.53;6157858;23;20468;-63
2023/03/03 09:00:58;;;;;;;21.88;9.60;;;;;;;5.07;77.12;96493.50;6158329;23;20072;-62
2023/03/03 09:03:26;;;;;;;17.42;10.20;;;;;;;5.17;77.74;96489.00;6158491;23;20021;-64
2023/03/03 09:05:54;;;;;;;16.38;8.85;;;;;;;5.20;78.11;96485.53;6158017;23;20021;-63
2023/03/03 09:08:22;;;;;;;14.13;9.35;;;;;;;5.18;77.90;96486.41;6158089;23;20017;-64
2023/03/03 09:10:49;;;;;;;13.02;8.63;;;;;;;5.30;78.26;96479.28;6159774;23;20061;-63
2023/03/03 09:13:19;;;;;;;19.98;9.77;;;;;;;5.40;77.95;96483.44;6160311;23;20025;-64
2023/03/03 09:15:47;;;;;;;14.50;9.25;;;;;;;5.50;76.90;96480.66;6160598;23;20060;-61
2023/03/03 09:18:22;;;;;;;14.48;10.15;;;;;;;5.52;77.04;96486.69;6160031;23;20028;-63
2023/03/03 09:20:51;;;;;;;17.88;11.15;;;;;;;5.57;77.34;96482.28;6159809;23;20029;-63
2023/03/03 09:23:35;;;;;;;20.27;11.75;;;;;;;5.59;78.46;96483.06;6159713;23;20017;-63
2023/03/03 09:26:25;;;;;;;21.50;11.15;;;;;;;5.56;78.46;96481.41;6159867;23;20024;-64
2023/03/03 09:28:53;;;;;;;;;;;;;;;5.53;78.33;96476.28;6160991;23;20026;-61
2023/03/03 09:31:26;;;;;;;23.75;15.73;;;;;;;5.48;78.59;96480.66;6160228;23;19998;-63
2023/03/03 09:33:58;;;;;;;26.30;13.10;;;;;;;5.48;78.18;96483.28;6160926;23;20018;-62
2023/03/03 09:36:28;;;;;;;22.48;10.93;;;;;;;5.54;78.14;96470.19;6163489;23;20045;-61
2023/03/03 09:38:57;;;;;;;15.73;11.45;;;;;;;5.60;77.88;96477.00;6162616;23;20022;-62
2023/03/03 09:42:00;;;;;;;15.43;8.37;;;;;;;5.59;77.92;96472.69;6164512;23;20025;-62
2023/03/03 09:45:07;;;;;;;18.30;10.68;;;;;;;5.62;77.49;96482.16;6163227;23;20244;-62
2023/03/03 09:47:48;;;;;;;27.73;10.82;;;;;;;5.62;77.48;96483.03;6159774;23;20018;-62
2023/03/03 09:50:32;;;;;;;24.30;11.10;;;;;;;5.63;77.37;96476.94;6160353;23;20026;-63
2023/03/03 09:53:22;;;;;;;20.48;10.32;;;;;;;5.49;77.61;96479.81;6160584;23;20022;-62
2023/03/03 09:55:57;;;;;;;16.25;8.32;;;;;;;5.51;78.00;96472.00;6159640;23;20076;-62
2023/03/03 09:58:45;;;;;;;18.92;10.57;;;;;;;5.57;77.33;96475.31;6160486;23;20022;-63
2023/03/03 10:01:50;;;;;;;17.73;9.50;;;;;;;5.69;77.60;96473.38;6159945;23;20021;-64
2023/03/03 10:04:48;;;;;;;16.77;9.35;;;;;;;5.68;77.19;96467.34;6108822;23;20025;-64
2023/03/03 10:07:37;;;;;;;19.92;10.18;;;;;;;5.74;76.69;96461.16;6161043;23;20025;-63
2023/03/03 10:10:26;;;;;;;17.55;10.10;;;;;;;5.87;76.66;96453.13;6160295;23;20021;-63
2023/03/03 10:13:10;;;;;;;21.17;10.80;;;;;;;6.08;76.79;96454.44;6161055;23;20026;-64
2023/03/03 10:15:47;;;;;;;20.52;9.05;;;;;;;6.26;75.38;96450.59;6160175;23;20022;-63
2023/03/03 10:18:25;;;;;;;20.15;10.63;;;;;;;6.36;74.53;96451.25;6160331;23;20468;-63
2023/03/03 10:21:03;;;;;;;24.90;10.82;;;;;;;6.54;74.81;96443.91;6160169;23;20028;-63
2023/03/03 10:23:50;;;;;;;11.90;8.60;;;;;;;6.65;72.44;96439.31;6159151;23;20029;-59
2023/03/03 10:26:31;;;;;;;12.13;8.43;;;;;;;6.78;70.32;96439.88;6158898;23;20025;-63
2023/03/03 10:29:21;;;;;;;23.15;7.70;;;;;;;6.87;70.67;96435.34;6159318;23;20035;-63
2023/03/03 10:32:09;;;;;;;17.00;8.50;;;;;;;7.01;70.43;96420.22;6159368;23;20040;-63
2023/03/03 10:34:55;;;;;;;14.27;7.03;;;;;;;6.92;66.48;96423.06;6158353;23;20092;-62
2023/03/03 10:37:36;;;;;;;15.15;7.95;;;;;;;6.82;68.17;96420.72;6159158;23;20056;-63
2023/03/03 10:40:21;;;;;;;18.65;7.85;;;;;;;6.96;68.41;96411.72;6159327;23;20084;-62
2023/03/03 10:43:16;;;;;;;11.68;7.55;;;;;;;7.08;68.83;96400.97;6159446;23;20021;-62
2023/03/03 10:46:08;;;;;;;19.63;7.80;;;;;;;7.07;68.25;96398.41;6144299;23;20022;-62
2023/03/03 10:48:51;;;;;;;18.42;8.10;;;;;;;6.95;69.45;96391.78;6158962;23;20092;-63
2023/03/03 10:51:28;;;;;;;15.45;7.13;;;;;;;6.94;70.64;96390.06;6159961;23;20049;-64
2023/03/03 10:54:07;;;;;;;21.77;7.68;;;;;;;6.86;68.65;96389.44;6159802;23;20048;-64
2023/03/03 10:56:46;;;;;;;10.20;6.65;;;;;;;6.83;66.96;96396.41;6159006;23;20337;-62
2023/03/03 10:59:37;;;;;;;9.50;4.80;;;;;;;6.73;62.80;96391.47;6158106;23;20021;-60
2023/03/03 11:02:12;;;;;;;;;;;;;;;6.63;63.39;96390.84;6156226;23;20400;-62
2023/03/03 11:05:06;;;;;;;11.85;4.85;;;;;;;6.60;63.55;96389.19;6158216;23;19923;-63
2023/03/03 11:07:37;;;;;;;4.80;3.85;;;;;;;6.55;62.53;96393.63;6158013;23;20347;-63
2023/03/03 11:10:19;;;;;;;14.70;5.28;;;;;;;6.57;62.41;96391.88;6158210;23;20140;-62
2023/03/03 11:12:58;;;;;;;10.68;4.30;;;;;;;6.59;61.95;96387.47;6158397;23;20400;-63
2023/03/03 11:15:43;;;;;;;17.67;6.97;;;;;;;6.60;64.77;96383.13;6158090;23;20017;-63
2023/03/03 11:18:21;;;;;;;19.02;8.05;;;;;;;6.55;69.20;96385.84;6158780;23;20029;-63
2023/03/03 11:20:57;;;;;;;25.55;9.18;;;;;;;6.50;70.41;96388.53;6158825;23;20084;-64
2023/03/03 11:23:48;;;;;;;12.60;7.38;;;;;;;6.32;72.16;96384.63;6160805;23;20419;-63
2023/03/03 11:26:25;;;;;;;13.88;7.20;;;;;;;6.10;73.14;96385.16;6160579;23;20372;-63
2023/03/03 11:29:10;;;;;;;14.35;8.50;;;;;;;6.03;76.31;96389.59;6160340;23;20101;-63
2023/03/03 11:31:46;;;;;;;16.73;10.27;;;;;;;6.04;76.78;96387.88;6159283;23;20022;-63
2023/03/03 11:34:23;;;;;;;12.45;8.77;;;;;;;5.98;77.05;96387.97;6159746;23;20088;-62
2023/03/03 11:36:56;;;;;;;11.77;7.93;;;;;;;5.97;76.83;96388.88;6160026;23;20025;-63
2023/03/03 11:39:26;;;;;;;17.55;7.30;;;;;;;5.84;77.49;96388.28;6160082;23;20049;-62
2023/03/03 11:42:04;;;;;;;7.63;5.25;;;;;;;5.85;76.94;96384.78;6159211;23;20025;-64
2023/03/03 11:44:38;;;;;;;17.33;8.45;;;;;;;5.76;78.56;96383.25;6159359;23;20448;-64
2023/03/03 11:47:17;;;;;;;16.65;7.47;;;;;;;5.81;78.50;96384.03;6159015;23;20480;-63
2023/03/03 11:49:50;;;;;;;11.25;8.02;;;;;;;5.76;79.04;96380.66;6158947;23;20096;-63
2023/03/03 11:52:28;;;;;;;11.80;7.63;;;;;;;5.74;79.13;96385.88;6159353;23;20022;-62
2023/03/03 11:55:02;;;;;;;16.17;8.00;;;;;;;5.82;79.52;96381.38;6159314;23;20021;-64